Time;durP1;ratioP1;P1;durP2;ratioP2;P2;SDS_P1;SDS_P2;PMS_P1;PMS_P2;Temp;Humidity;BMP_temperature;BMP_pressure;BME280_temperature;BME280_humidity;BME280_pressure;Samples;Min_cycle;Max_cycle;Signal;HPM_P1;HPM_P2
2021/05/28 00:00:01;;;;;;;9.77;4.67;;;10.30;99.90;;;;;;6267614;22;20177;-87
2021/05/28 00:02:27;;;;;;;8.93;3.90;;;10.30;99.90;;;;;;6269350;22;20180;-86
2021/05/28 00:04:54;;;;;;;6.70;4.20;;;10.30;99.90;;;;;;6270381;22;20177;-84
2021/05/28 00:07:20;;;;;;;10.77;4.27;;;10.30;99.90;;;;;;6268301;22;20200;-79
2021/05/28 00:09:47;;;;;;;7.60;4.20;;;10.30;99.90;;;;;;6268089;22;20173;-82
2021/05/28 00:12:14;;;;;;;8.10;4.27;;;10.30;99.90;;;;;;6269575;22;20199;-80
2021/05/28 00:14:40;;;;;;;7.43;3.70;;;10.30;99.90;;;;;;6268647;22;20180;-86
2021/05/28 00:17:06;;;;;;;6.20;3.70;;;10.40;99.90;;;;;;6269328;22;20729;-81
2021/05/28 00:19:33;;;;;;;5.97;3.37;;;10.30;99.90;;;;;;6268531;22;20183;-79
2021/05/28 00:21:59;;;;;;;10.73;4.07;;;10.30;99.90;;;;;;6268504;22;20639;-86
2021/05/28 00:24:25;;;;;;;8.87;4.13;;;10.20;99.90;;;;;;6269714;22;20845;-87
2021/05/28 00:26:52;;;;;;;7.70;3.63;;;10.20;99.90;;;;;;6269290;22;20203;-90
2021/05/28 00:29:19;;;;;;;7.73;3.80;;;10.20;99.90;;;;;;6268379;22;20169;-79
2021/05/28 00:31:45;;;;;;;8.37;4.20;;;10.20;99.90;;;;;;6268777;22;20180;-83
2021/05/28 00:34:11;;;;;;;8.43;4.23;;;10.20;99.90;;;;;;6270248;22;20172;-83
2021/05/28 00:36:38;;;;;;;7.50;4.50;;;10.10;99.90;;;;;;6268235;22;20176;-80
2021/05/28 00:39:04;;;;;;;8.23;4.97;;;10.20;99.90;;;;;;6268941;22;20180;-85
2021/05/28 00:41:30;;;;;;;8.50;4.40;;;10.10;99.90;;;;;;6267702;22;20827;-87
2021/05/28 00:43:58;;;;;;;6.10;3.80;;;10.10;99.90;;;;;;6268402;22;20231;-86
2021/05/28 00:46:26;;;;;;;7.97;4.30;;;10.10;99.90;;;;;;6267138;22;20235;-84
2021/05/28 00:48:53;;;;;;;11.47;4.77;;;10.00;99.90;;;;;;6266293;22;20181;-78
2021/05/28 00:51:20;;;;;;;8.87;4.53;;;9.90;99.90;;;;;;6267900;22;20543;-87
2021/05/28 00:53:46;;;;;;;7.30;4.67;;;9.90;99.90;;;;;;6268356;22;20277;-85
2021/05/28 00:56:14;;;;;;;9.33;5.13;;;9.90;99.90;;;;;;6267762;22;20400;-86
2021/05/28 00:58:41;;;;;;;8.43;5.60;;;9.80;99.90;;;;;;6266179;22;20187;-83
2021/05/28 01:01:08;;;;;;;7.83;5.47;;;9.80;99.90;;;;;;6265420;22;20617;-79
2021/05/28 01:03:35;;;;;;;9.77;5.43;;;9.70;99.90;;;;;;6267398;22;20180;-85
2021/05/28 01:06:01;;;;;;;7.90;5.33;;;9.60;99.90;;;;;;6268497;22;20196;-85
2021/05/28 01:08:28;;;;;;;7.97;5.00;;;9.60;99.90;;;;;;6267760;22;20176;-82
2021/05/28 01:10:54;;;;;;;6.83;5.43;;;9.50;99.90;;;;;;6265422;22;20176;-79
2021/05/28 01:13:20;;;;;;;6.97;5.73;;;9.50;99.90;;;;;;6265197;22;20179;-83
2021/05/28 01:15:47;;;;;;;11.37;6.93;;;9.40;99.90;;;;;;6269294;22;20592;-85
2021/05/28 01:18:14;;;;;;;9.60;6.93;;;9.40;99.90;;;;;;6268146;22;20192;-81
2021/05/28 01:20:40;;;;;;;11.53;6.73;;;9.40;99.90;;;;;;6266037;22;20612;-83
2021/05/28 01:23:07;;;;;;;8.37;5.70;;;9.30;99.90;;;;;;6266845;22;20169;-86
2021/05/28 01:25:34;;;;;;;8.73;5.20;;;9.30;99.90;;;;;;6268030;22;20219;-85
2021/05/28 01:28:01;;;;;;;7.97;5.83;;;9.30;99.90;;;;;;6266631;22;20234;-80
2021/05/28 01:30:28;;;;;;;7.03;5.57;;;9.20;99.90;;;;;;6265276;22;20176;-82
2021/05/28 01:32:55;;;;;;;6.30;5.70;;;9.20;99.90;;;;;;6269277;22;20456;-86
2021/05/28 01:35:21;;;;;;;9.57;6.73;;;9.20;99.90;;;;;;6270661;22;20173;-84
2021/05/28 01:37:48;;;;;;;7.10;5.60;;;9.10;99.90;;;;;;6270646;22;20176;-86
2021/05/28 01:40:18;;;;;;;8.43;7.57;;;9.10;99.90;;;;;;6270029;22;20172;-80
2021/05/28 01:42:45;;;;;;;8.30;5.90;;;9.10;99.90;;;;;;6270303;22;20223;-81
2021/05/28 01:45:12;;;;;;;7.53;6.43;;;9.00;99.90;;;;;;6269128;22;20168;-85
2021/05/28 01:47:38;;;;;;;8.00;5.70;;;9.00;99.90;;;;;;6268416;22;20184;-86
2021/05/28 01:50:08;;;;;;;10.37;6.97;;;9.00;99.90;;;;;;6267735;22;20164;-82
2021/05/28 01:52:35;;;;;;;6.33;5.50;;;8.90;99.90;;;;;;6267272;22;20179;-80
2021/05/28 01:55:01;;;;;;;9.03;5.90;;;8.90;99.90;;;;;;6265999;22;20223;-80
2021/05/28 01:57:29;;;;;;;7.00;5.43;;;8.80;99.90;;;;;;6267948;22;20172;-83
2021/05/28 01:59:55;;;;;;;7.03;5.00;;;8.80;99.90;;;;;;6269737;22;20172;-84
2021/05/28 02:02:21;;;;;;;9.13;7.10;;;8.70;99.90;;;;;;6268098;22;20244;-80
2021/05/28 02:04:47;;;;;;;8.47;7.13;;;8.70;99.90;;;;;;6266579;22;20165;-83
2021/05/28 02:07:14;;;;;;;6.50;5.23;;;8.60;99.90;;;;;;6269440;22;20260;-84
2021/05/28 02:09:40;;;;;;;9.73;6.60;;;8.60;99.90;;;;;;6270089;22;20210;-79
2021/05/28 02:12:06;;;;;;;7.13;6.37;;;8.60;99.90;;;;;;6267995;22;20174;-81
2021/05/28 02:14:33;;;;;;;7.70;5.53;;;8.50;99.90;;;;;;6266017;22;20483;-83
2021/05/28 02:17:00;;;;;;;6.70;5.60;;;8.50;99.90;;;;;;6268931;22;20173;-84
2021/05/28 02:19:26;;;;;;;5.80;5.00;;;8.40;99.90;;;;;;6268551;22;20184;-81
2021/05/28 02:21:53;;;;;;;8.37;5.73;;;8.40;99.90;;;;;;6267441;22;20196;-81
2021/05/28 02:24:19;;;;;;;8.13;5.90;;;8.30;99.90;;;;;;6269060;22;20439;-83
2021/05/28 02:26:47;;;;;;;6.73;6.00;;;8.30;99.90;;;;;;6268259;22;20678;-84
2021/05/28 02:29:14;;;;;;;9.33;6.97;;;8.30;99.90;;;;;;6266332;22;20176;-81
2021/05/28 02:31:42;;;;;;;10.30;6.83;;;8.20;99.90;;;;;;6268722;22;20172;-82
2021/05/28 02:34:09;;;;;;;10.50;7.30;;;8.20;99.90;;;;;;6267553;22;20179;-80
2021/05/28 02:36:35;;;;;;;7.57;6.73;;;8.20;99.90;;;;;;6266081;22;20471;-81
2021/05/28 02:39:02;;;;;;;8.43;7.10;;;8.10;99.90;;;;;;6267952;22;20173;-84
2021/05/28 02:41:28;;;;;;;8.10;7.23;;;8.10;99.90;;;;;;6266349;22;20173;-80
2021/05/28 02:43:54;;;;;;;11.13;8.50;;;8.00;99.90;;;;;;6267301;22;20444;-78
2021/05/28 02:46:21;;;;;;;10.80;8.23;;;8.00;99.90;;;;;;6268922;22;20192;-83
2021/05/28 02:48:48;;;;;;;9.83;8.77;;;8.00;99.90;;;;;;6270552;22;20252;-84
2021/05/28 02:51:15;;;;;;;9.10;8.07;;;8.00;99.90;;;;;;6270278;22;20173;-79
2021/05/28 02:53:41;;;;;;;10.20;8.20;;;7.90;99.90;;;;;;6267122;22;20767;-80
2021/05/28 02:56:07;;;;;;;9.13;8.13;;;7.90;99.90;;;;;;6267786;22;20195;-84
2021/05/28 02:58:34;;;;;;;11.93;8.97;;;7.80;99.90;;;;;;6267169;22;20172;-84
2021/05/28 03:01:00;;;;;;;7.90;7.00;;;7.80;99.90;;;;;;6266315;22;20169;-81
2021/05/28 03:03:27;;;;;;;10.50;8.13;;;7.80;99.90;;;;;;6265048;22;20169;-81
2021/05/28 03:05:54;;;;;;;11.40;8.70;;;7.70;99.90;;;;;;6266741;22;20204;-81
2021/05/28 03:08:20;;;;;;;10.07;8.27;;;7.70;99.90;;;;;;6266640;22;20207;-83
2021/05/28 03:10:47;;;;;;;11.33;8.73;;;7.70;99.90;;;;;;6265017;22;20565;-84
2021/05/28 03:13:14;;;;;;;9.60;7.87;;;7.70;99.90;;;;;;6267349;22;20172;-82
2021/05/28 03:15:41;;;;;;;12.07;8.33;;;7.70;99.90;;;;;;6265044;22;20172;-79
2021/05/28 03:18:13;;;;;;;15.43;10.00;;;7.60;99.90;;;;;;6265932;22;20177;-83
2021/05/28 03:20:41;;;;;;;14.67;10.90;;;7.60;99.90;;;;;;6267337;22;20189;-82
2021/05/28 03:23:09;;;;;;;11.57;9.00;;;7.50;99.90;;;;;;6266333;22;20172;-83
2021/05/28 03:25:38;;;;;;;14.00;9.20;;;7.50;99.90;;;;;;6265047;22;20576;-81
2021/05/28 03:28:05;;;;;;;12.23;9.73;;;7.40;99.90;;;;;;6265869;22;20807;-81
2021/05/28 03:30:32;;;;;;;12.00;8.13;;;7.40;99.90;;;;;;6266630;22;20172;-80
2021/05/28 03:32:58;;;;;;;10.63;8.30;;;7.40;99.90;;;;;;6266910;22;20228;-81
2021/05/28 03:35:25;;;;;;;10.73;7.53;;;7.40;99.90;;;;;;6266608;22;20176;-80
2021/05/28 03:37:51;;;;;;;8.80;7.67;;;7.40;99.90;;;;;;6266503;22;20173;-80
2021/05/28 03:40:18;;;;;;;10.90;8.07;;;7.40;99.90;;;;;;6268185;22;20177;-79
2021/05/28 03:42:45;;;;;;;8.70;7.50;;;7.30;99.90;;;;;;6265749;22;20214;-84
2021/05/28 03:45:12;;;;;;;7.83;7.03;;;7.30;99.90;;;;;;6265718;22;20527;-84
2021/05/28 03:47:38;;;;;;;10.50;7.23;;;7.30;99.90;;;;;;6267226;22;20193;-83
2021/05/28 03:50:06;;;;;;;11.03;8.50;;;7.30;99.90;;;;;;6266258;22;20729;-81
2021/05/28 03:52:32;;;;;;;9.70;7.50;;;7.30;99.90;;;;;;6266216;22;20188;-83
2021/05/28 03:54:59;;;;;;;10.80;7.93;;;7.20;99.90;;;;;;6266996;22;20211;-79
2021/05/28 03:57:26;;;;;;;8.47;6.97;;;7.20;99.90;;;;;;6266905;22;20627;-80
2021/05/28 03:59:52;;;;;;;10.60;7.53;;;7.20;99.90;;;;;;6264982;22;20561;-81
2021/05/28 04:02:18;;;;;;;7.97;6.80;;;7.30;99.90;;;;;;6268068;22;20177;-83
2021/05/28 04:04:45;;;;;;;7.77;6.50;;;7.30;99.90;;;;;;6267450;22;20233;-80
2021/05/28 04:07:11;;;;;;;9.83;7.27;;;7.30;99.90;;;;;;6266607;22;20419;-79
2021/05/28 04:09:37;;;;;;;10.63;7.23;;;7.30;99.90;;;;;;6266255;22;20274;-84
2021/05/28 04:12:05;;;;;;;9.20;6.97;;;7.30;99.90;;;;;;6266821;22;20180;-85
2021/05/28 04:14:32;;;;;;;9.20;7.13;;;7.30;99.90;;;;;;6267000;22;20187;-83
2021/05/28 04:16:58;;;;;;;9.00;7.20;;;7.40;99.90;;;;;;6265633;22;20191;-80
2021/05/28 04:19:24;;;;;;;7.80;7.00;;;7.40;99.90;;;;;;6268167;22;20230;-79
2021/05/28 04:21:50;;;;;;;8.47;6.80;;;7.40;99.90;;;;;;6266913;22;20193;-81
2021/05/28 04:24:17;;;;;;;8.97;7.90;;;7.40;99.90;;;;;;6267373;22;20165;-83
2021/05/28 04:26:43;;;;;;;10.23;8.30;;;7.40;99.90;;;;;;6265633;22;20234;-80
2021/05/28 04:29:09;;;;;;;8.67;6.70;;;7.40;99.90;;;;;;6266522;22;20722;-84
2021/05/28 04:31:36;;;;;;;8.23;6.67;;;7.40;99.90;;;;;;6267579;22;20179;-82
2021/05/28 04:34:03;;;;;;;9.27;6.97;;;7.50;99.90;;;;;;6266700;22;20172;-83
2021/05/28 04:36:29;;;;;;;7.37;6.63;;;7.40;99.90;;;;;;6267869;22;20177;-82
2021/05/28 04:38:55;;;;;;;8.17;7.00;;;7.50;99.90;;;;;;6267139;22;20168;-84
2021/05/28 04:41:22;;;;;;;8.97;7.33;;;7.50;99.90;;;;;;6267178;22;20180;-81
2021/05/28 04:43:48;;;;;;;8.23;6.60;;;7.50;99.90;;;;;;6268103;22;20177;-80
2021/05/28 04:46:15;;;;;;;8.10;6.40;;;7.60;99.90;;;;;;6266816;22;20195;-81
2021/05/28 04:48:42;;;;;;;10.03;7.07;;;7.60;99.90;;;;;;6266940;22;20172;-79
2021/05/28 04:51:08;;;;;;;8.03;6.93;;;7.70;99.90;;;;;;6265868;22;20176;-82
2021/05/28 04:53:34;;;;;;;9.53;6.30;;;7.70;99.90;;;;;;6267136;22;20201;-85
2021/05/28 04:56:01;;;;;;;10.03;7.03;;;7.70;99.90;;;;;;6267980;22;20165;-81
2021/05/28 04:58:27;;;;;;;12.83;9.00;;;7.80;99.90;;;;;;6269069;22;20177;-84
2021/05/28 05:00:54;;;;;;;11.60;8.63;;;7.80;99.90;;;;;;6266367;22;20173;-85
2021/05/28 05:03:21;;;;;;;12.33;8.27;;;7.90;99.90;;;;;;6268625;22;20235;-82
2021/05/28 05:05:48;;;;;;;13.00;8.97;;;8.00;99.90;;;;;;6269718;22;20230;-83
2021/05/28 05:08:14;;;;;;;13.70;8.10;;;8.10;99.90;;;;;;6270326;22;20187;-80
2021/05/28 05:10:40;;;;;;;12.60;9.00;;;8.20;99.90;;;;;;6269706;22;20168;-84
2021/05/28 05:13:10;;;;;;;15.97;8.57;;;8.40;99.90;;;;;;6271021;22;20172;-82
2021/05/28 05:15:37;;;;;;;12.27;8.63;;;8.50;99.90;;;;;;6269833;22;20165;-83
2021/05/28 05:18:05;;;;;;;14.27;8.53;;;8.60;99.90;;;;;;6268983;22;20164;-83
2021/05/28 05:20:32;;;;;;;11.80;9.23;;;8.80;99.90;;;;;;6270046;22;20203;-79
2021/05/28 05:22:59;;;;;;;15.53;9.00;;;9.10;99.90;;;;;;6270264;22;20177;-83
2021/05/28 05:25:25;;;;;;;15.97;9.50;;;9.60;99.90;;;;;;6269779;22;20173;-82
2021/05/28 05:27:52;;;;;;;13.47;9.10;;;10.20;99.90;;;;;;6268917;22;20200;-80
2021/05/28 05:30:19;;;;;;;8.57;6.57;;;10.80;99.90;;;;;;6269490;22;20180;-79
2021/05/28 05:32:45;;;;;;;14.27;6.70;;;11.40;99.90;;;;;;6269658;22;20227;-81
2021/05/28 05:35:12;;;;;;;8.30;6.43;;;11.90;99.90;;;;;;6270843;22;20176;-82
2021/05/28 05:37:39;;;;;;;9.23;5.27;;;12.50;99.90;;;;;;6270251;22;20201;-85
2021/05/28 05:40:08;;;;;;;9.20;3.60;;;12.90;99.90;;;;;;6269095;22;20247;-86
2021/05/28 05:42:37;;;;;;;5.73;3.70;;;13.20;99.90;;;;;;6268444;22;20176;-84
2021/05/28 05:45:04;;;;;;;6.20;3.30;;;13.60;99.90;;;;;;6268646;22;20184;-83
2021/05/28 05:47:30;;;;;;;6.43;3.50;;;13.90;99.90;;;;;;6269679;22;20254;-83
2021/05/28 05:49:57;;;;;;;5.53;3.17;;;14.30;99.90;;;;;;6269199;22;20173;-79
2021/05/28 05:52:23;;;;;;;8.13;3.03;;;14.70;99.90;;;;;;6268756;22;20168;-82
2021/05/28 05:54:49;;;;;;;6.47;3.07;;;15.00;99.90;;;;;;6268846;22;20200;-82
2021/05/28 05:57:16;;;;;;;4.90;3.40;;;15.40;99.90;;;;;;6269441;22;20195;-83
2021/05/28 05:59:43;;;;;;;6.93;3.40;;;15.70;99.90;;;;;;6267336;22;20184;-82
2021/05/28 06:02:09;;;;;;;4.88;3.45;;;15.90;99.90;;;;;;6268051;22;20769;-80
2021/05/28 06:04:35;;;;;;;6.35;3.05;;;16.10;99.90;;;;;;6268732;22;20191;-83
2021/05/28 06:07:02;;;;;;;6.07;2.72;;;16.30;99.90;;;;;;6266452;22;20197;-81
2021/05/28 06:09:28;;;;;;;4.22;2.85;;;16.40;99.90;;;;;;6268548;22;20549;-80
2021/05/28 06:11:55;;;;;;;4.45;2.63;;;16.60;99.90;;;;;;6267115;22;20188;-78
2021/05/28 06:14:22;;;;;;;5.70;2.90;;;16.70;99.90;;;;;;6267036;22;20476;-80
2021/05/28 06:16:48;;;;;;;5.95;3.33;;;16.90;99.90;;;;;;6267588;22;20254;-85
2021/05/28 06:19:15;;;;;;;7.97;3.00;;;16.90;99.90;;;;;;6268195;22;20330;-82
2021/05/28 06:21:42;;;;;;;7.30;3.00;;;17.20;99.90;;;;;;6266792;22;20287;-83
2021/05/28 06:24:08;;;;;;;8.40;3.63;;;17.50;99.90;;;;;;6268635;22;20184;-84
2021/05/28 06:26:35;;;;;;;5.18;2.90;;;17.50;99.90;;;;;;6268576;22;20199;-79
2021/05/28 06:29:02;;;;;;;7.50;3.15;;;17.60;99.90;;;;;;6267950;22;20211;-82
2021/05/28 06:31:30;;;;;;;5.80;3.20;;;17.80;99.90;;;;;;6265816;22;20457;-83
2021/05/28 06:33:56;;;;;;;6.13;2.78;;;18.10;99.90;;;;;;6266295;22;20168;-80
2021/05/28 06:36:22;;;;;;;5.28;2.83;;;18.20;99.90;;;;;;6267160;22;20175;-83
2021/05/28 06:38:48;;;;;;;5.63;2.55;;;18.50;99.90;;;;;;6234983;22;20319;-80
2021/05/28 06:41:15;;;;;;;4.63;2.67;;;18.70;99.90;;;;;;6266610;22;20172;-81
2021/05/28 06:43:41;;;;;;;5.05;2.30;;;18.90;99.90;;;;;;6265905;22;20230;-81
2021/05/28 06:46:07;;;;;;;5.55;2.88;;;18.90;99.90;;;;;;6265793;22;20188;-84
2021/05/28 06:48:35;;;;;;;4.13;2.90;;;19.00;99.90;;;;;;6266595;22;20175;-81
2021/05/28 06:51:01;;;;;;;5.13;2.65;;;19.10;99.90;;;;;;6267040;22;20433;-82
2021/05/28 06:53:27;;;;;;;5.40;3.15;;;19.40;99.90;;;;;;6265707;22;20671;-78
2021/05/28 06:55:54;;;;;;;3.80;2.50;;;19.50;99.90;;;;;;6265256;22;20188;-82
2021/05/28 06:58:21;;;;;;;5.28;3.03;;;19.60;99.90;;;;;;6265925;22;20169;-81
2021/05/28 07:00:48;;;;;;;6.85;2.95;;;19.70;99.90;;;;;;6265812;22;20180;-81
2021/05/28 07:03:14;;;;;;;5.78;3.00;;;19.80;99.90;;;;;;6264422;22;20695;-82
2021/05/28 07:05:41;;;;;;;7.60;3.65;;;19.80;99.90;;;;;;6264399;22;20562;-82
2021/05/28 07:08:07;;;;;;;4.70;3.08;;;19.70;99.90;;;;;;6263638;22;20588;-79
2021/05/28 07:10:34;;;;;;;4.93;2.83;;;19.10;99.90;;;;;;6264215;22;20226;-79
2021/05/28 07:13:00;;;;;;;5.13;2.97;;;19.40;99.90;;;;;;6264364;22;20277;-81
2021/05/28 07:15:26;;;;;;;5.65;3.17;;;19.60;99.90;;;;;;6264895;22;20222;-81
2021/05/28 07:17:53;;;;;;;4.93;2.50;;;19.90;99.90;;;;;;6265416;22;20169;-80
2021/05/28 07:20:19;;;;;;;5.07;2.50;;;19.90;99.90;;;;;;6265416;22;20204;-79
2021/05/28 07:22:46;;;;;;;4.32;2.70;;;20.10;99.90;;;;;;6263184;22;20226;-79
2021/05/28 07:25:15;;;;;;;7.85;2.83;;;20.40;99.90;;;;;;6264155;22;20409;-79
2021/05/28 07:27:41;;;;;;;3.42;2.20;;;20.60;99.90;;;;;;6263078;22;20200;-79
2021/05/28 07:30:09;;;;;;;4.35;2.50;;;20.60;99.90;;;;;;6264109;22;20615;-84
2021/05/28 07:32:35;;;;;;;5.07;2.67;;;20.60;99.90;;;;;;6265401;22;20177;-81
2021/05/28 07:35:02;;;;;;;5.32;2.38;;;20.70;99.90;;;;;;6264603;22;20177;-81
2021/05/28 07:37:28;;;;;;;4.95;2.55;;;20.60;99.90;;;;;;6263859;22;20213;-78
2021/05/28 07:39:56;;;;;;;4.93;2.72;;;20.90;99.90;;;;;;6265491;22;20192;-78
2021/05/28 07:42:22;;;;;;;4.20;2.30;;;21.20;99.90;;;;;;6265444;22;20164;-79
2021/05/28 07:44:48;;;;;;;7.43;2.67;;;21.50;99.90;;;;;;6264111;22;20172;-80
2021/05/28 07:47:15;;;;;;;4.25;2.58;;;21.60;99.90;;;;;;6265019;22;20203;-82
2021/05/28 07:49:42;;;;;;;5.38;3.42;;;21.40;99.90;;;;;;6266002;22;20264;-80
2021/05/28 07:52:09;;;;;;;4.63;2.50;;;21.10;99.90;;;;;;6263985;22;20169;-79
2021/05/28 07:54:36;;;;;;;5.15;3.13;;;21.20;99.90;;;;;;6264780;22;20211;-84
2021/05/28 07:57:04;;;;;;;5.43;2.95;;;21.30;99.90;;;;;;6265538;22;20236;-82
2021/05/28 07:59:30;;;;;;;6.85;3.15;;;21.50;99.90;;;;;;6265323;22;20184;-80
2021/05/28 08:01:57;;;;;;;4.85;2.55;;;21.60;99.90;;;;;;6265100;22;20177;-79
2021/05/28 08:04:23;;;;;;;3.95;2.45;;;21.80;99.90;;;;;;6264860;22;20172;-81
2021/05/28 08:06:50;;;;;;;6.60;3.80;;;21.70;99.90;;;;;;6264317;22;20634;-78
2021/05/28 08:09:17;;;;;;;5.15;3.20;;;21.70;99.90;;;;;;6264815;22;20478;-81
2021/05/28 08:11:44;;;;;;;5.63;3.40;;;21.40;99.90;;;;;;6265992;22;20165;-81
2021/05/28 08:14:11;;;;;;;5.72;3.65;;;21.60;99.90;;;;;;6264665;22;20553;-80
2021/05/28 08:16:37;;;;;;;5.55;3.08;;;21.60;99.90;;;;;;6263438;22;20169;-81
2021/05/28 08:19:04;;;;;;;4.60;3.05;;;21.60;99.90;;;;;;6263698;22;20177;-81
2021/05/28 08:21:30;;;;;;;4.97;3.55;;;21.80;99.90;;;;;;6263498;22;20188;-79
2021/05/28 08:23:57;;;;;;;5.40;2.70;;;21.60;99.90;;;;;;6265097;22;20255;-80
2021/05/28 08:26:23;;;;;;;6.43;3.30;;;21.70;99.90;;;;;;6263162;22;20196;-82
2021/05/28 08:28:49;;;;;;;7.05;3.80;;;22.10;99.90;;;;;;6266003;22;20230;-82
2021/05/28 08:31:17;;;;;;;4.93;3.47;;;22.00;99.90;;;;;;6264800;22;20188;-82
2021/05/28 08:33:45;;;;;;;5.45;3.60;;;22.10;99.90;;;;;;6265508;22;20177;-82
2021/05/28 08:36:12;;;;;;;4.45;3.03;;;21.50;99.90;;;;;;6265421;22;20563;-82
2021/05/28 08:38:38;;;;;;;3.78;3.13;;;21.70;99.90;;;;;;6264999;22;20169;-81
2021/05/28 08:41:05;;;;;;;4.60;3.08;;;21.90;99.90;;;;;;6264222;22;20196;-81
2021/05/28 08:43:32;;;;;;;5.28;3.28;;;22.30;99.90;;;;;;6264419;22;20226;-81
2021/05/28 08:46:01;;;;;;;5.07;3.38;;;21.70;99.90;;;;;;6263181;22;20172;-80
2021/05/28 08:50:53;;;;;;;4.22;3.13;;;21.50;99.90;;;;;;6294861;22;20238;-80
2021/05/28 08:53:20;;;;;;;3.55;2.45;;;21.80;99.90;;;;;;6294374;22;20250;-79
2021/05/28 08:55:46;;;;;;;5.45;2.60;;;22.10;99.90;;;;;;6294837;22;20179;-79
2021/05/28 08:58:15;;;;;;;4.55;2.83;;;22.20;99.90;;;;;;6295797;22;20164;-81
2021/05/28 09:00:44;;;;;;;3.40;2.20;;;21.90;99.90;;;;;;6294405;22;20186;-81
2021/05/28 09:03:22;;;;;;;3.42;2.40;;;21.90;99.90;;;;;;6294865;22;20183;-81
2021/05/28 09:05:49;;;;;;;4.25;2.83;;;22.20;99.90;;;;;;6294540;22;20695;-82
2021/05/28 09:08:24;;;;;;;4.68;2.60;;;22.00;99.90;;;;;;6294360;22;20211;-79
2021/05/28 09:10:51;;;;;;;4.20;2.60;;;22.30;99.90;;;;;;6292430;22;20167;-80
2021/05/28 09:13:20;;;;;;;4.80;2.60;;;22.50;99.90;;;;;;6293924;22;20275;-79
2021/05/28 09:15:48;;;;;;;3.63;2.15;;;23.00;99.90;;;;;;6292881;22;20622;-79
2021/05/28 09:18:14;;;;;;;5.20;2.33;;;23.00;99.90;;;;;;6293776;22;20169;-78
2021/05/28 09:20:45;;;;;;;5.35;2.53;;;23.40;99.90;;;;;;6293608;22;20496;-79
2021/05/28 09:23:16;;;;;;;4.28;2.50;;;23.20;99.90;;;;;;6292642;22;20161;-80
2021/05/28 09:26:02;;;;;;;3.78;2.42;;;23.20;99.90;;;;;;6293830;22;20439;-81
2021/05/28 09:28:30;;;;;;;4.47;2.40;;;23.50;99.90;;;;;;6293782;22;20572;-80
2021/05/28 09:30:59;;;;;;;2.88;2.30;;;23.40;99.90;;;;;;6293350;22;20179;-78
2021/05/28 09:33:26;;;;;;;3.42;2.17;;;23.10;99.90;;;;;;6293191;22;20172;-80
2021/05/28 09:36:05;;;;;;;2.83;1.60;;;22.80;99.90;;;;;;6292324;22;20168;-80
2021/05/28 09:38:31;;;;;;;3.65;2.40;;;22.80;99.90;;;;;;6291768;22;20169;-82
2021/05/28 09:40:59;;;;;;;2.97;2.30;;;23.10;99.90;;;;;;6293962;22;20734;-78
2021/05/28 09:43:26;;;;;;;3.35;2.42;;;22.90;99.90;;;;;;6292466;22;20226;-78
2021/05/28 09:45:53;;;;;;;4.13;2.47;;;22.50;99.90;;;;;;6293546;22;20572;-81
2021/05/28 09:48:26;;;;;;;3.80;2.38;;;22.80;99.90;;;;;;6294567;22;20203;-82
2021/05/28 09:50:54;;;;;;;3.47;2.10;;;23.00;99.90;;;;;;6293599;22;20207;-81
2021/05/28 09:53:29;;;;;;;2.40;1.90;;;23.20;99.90;;;;;;6296697;22;20406;-79
2021/05/28 09:55:55;;;;;;;3.40;2.00;;;23.50;99.90;;;;;;6296080;22;20172;-80
2021/05/28 09:58:23;;;;;;;2.75;1.80;;;23.10;99.90;;;;;;6295149;22;20172;-80
2021/05/28 10:00:50;;;;;;;2.95;1.70;;;22.80;99.90;;;;;;6296194;22;20179;-80
2021/05/28 10:03:19;;;;;;;4.55;2.67;;;23.20;99.90;;;;;;6295683;22;20168;-81
2021/05/28 10:05:48;;;;;;;3.47;2.47;;;23.30;99.90;;;;;;6295417;22;20172;-81
2021/05/28 10:08:16;;;;;;;4.97;2.67;;;23.30;99.90;;;;;;6296399;22;20203;-81
2021/05/28 10:10:44;;;;;;;4.82;2.75;;;23.20;99.90;;;;;;6294818;22;20600;-78
2021/05/28 10:13:12;;;;;;;3.88;2.35;;;23.40;99.90;;;;;;6294227;22;20620;-78
2021/05/28 10:15:41;;;;;;;3.00;1.67;;;23.20;99.90;;;;;;6295041;22;20170;-79
2021/05/28 10:18:07;;;;;;;2.65;2.28;;;23.30;99.90;;;;;;6295002;22;20171;-80
2021/05/28 10:20:34;;;;;;;4.97;2.22;;;23.20;99.90;;;;;;6294712;22;20192;-77
2021/05/28 10:23:01;;;;;;;3.50;2.35;;;23.00;99.90;;;;;;6295819;22;20222;-78
2021/05/28 10:25:27;;;;;;;5.65;1.95;;;22.60;99.90;;;;;;6296168;22;20183;-79
2021/05/28 10:27:58;;;;;;;4.10;1.83;;;22.10;99.90;;;;;;6295562;22;20192;-79
2021/05/28 10:30:27;;;;;;;6.00;2.20;;;22.10;99.90;;;;;;6295684;22;20706;-77
2021/05/28 10:33:17;;;;;;;4.93;1.80;;;22.00;99.90;;;;;;6296196;22;20282;-82
2021/05/28 10:35:46;;;;;;;3.03;1.85;;;22.10;99.90;;;;;;6296046;22;20572;-79
2021/05/28 10:38:38;;;;;;;4.60;1.85;;;22.00;99.90;;;;;;6296311;22;20172;-77
2021/05/28 10:41:31;;;;;;;2.50;1.63;;;22.00;99.90;;;;;;6294861;22;20258;-78
2021/05/28 10:44:03;;;;;;;3.40;1.90;;;22.30;99.90;;;;;;6248265;22;20172;-81
2021/05/28 10:46:29;;;;;;;3.28;1.80;;;22.10;99.90;;;;;;6295118;22;20270;-80
2021/05/28 10:49:36;;;;;;;4.82;2.05;;;22.00;99.90;;;;;;6293034;22;20204;-78
2021/05/28 10:52:06;;;;;;;4.50;2.05;;;21.70;99.90;;;;;;6293871;22;20538;-77
2021/05/28 10:54:38;;;;;;;4.63;2.25;;;22.00;99.90;;;;;;6293883;22;20171;-76
2021/05/28 10:57:18;;;;;;;3.67;2.15;;;21.70;99.90;;;;;;6295051;22;20168;-80
2021/05/28 10:59:47;;;;;;;4.53;1.77;;;21.40;99.90;;;;;;6295814;22;20940;-77
2021/05/28 11:02:13;;;;;;;2.40;1.77;;;21.00;99.90;;;;;;6298030;22;20255;-82
2021/05/28 11:05:01;;;;;;;4.05;2.13;;;21.20;99.90;;;;;;6300277;22;20172;-82
2021/05/28 11:07:34;;;;;;;4.65;2.10;;;21.60;99.90;;;;;;6286866;22;20191;-82
2021/05/28 11:10:17;;;;;;;3.85;1.63;;;21.50;99.90;;;;;;6295527;22;20176;-77
2021/05/28 11:12:44;;;;;;;5.20;1.83;;;21.70;99.90;;;;;;6295657;22;20640;-78
2021/05/28 11:15:13;;;;;;;5.00;2.10;;;21.90;99.90;;;;;;6296134;22;20168;-79
2021/05/28 11:17:53;;;;;;;2.95;1.90;;;22.10;99.90;;;;;;6295296;22;20463;-79
2021/05/28 11:20:27;;;;;;;4.70;1.70;;;22.10;99.90;;;;;;6295201;22;20425;-80
2021/05/28 11:22:54;;;;;;;3.60;2.10;;;22.20;99.90;;;;;;6296336;22;20170;-83
2021/05/28 11:25:22;;;;;;;6.68;2.40;;;22.30;99.90;;;;;;6296192;22;20172;-84
2021/05/28 11:27:58;;;;;;;4.15;2.28;;;22.50;99.90;;;;;;6296156;22;20712;-75
2021/05/28 11:30:43;;;;;;;4.00;1.80;;;22.60;99.90;;;;;;6294936;22;20417;-77
2021/05/28 11:33:30;;;;;;;4.50;2.28;;;22.70;99.90;;;;;;6294920;22;20300;-81
2021/05/28 11:35:57;;;;;;;5.57;2.20;;;22.70;99.90;;;;;;6293752;22;20183;-78
2021/05/28 11:38:33;;;;;;;3.63;1.88;;;22.50;99.90;;;;;;6295491;22;20172;-79
2021/05/28 11:40:59;;;;;;;3.10;2.00;;;22.50;99.90;;;;;;6294545;22;20221;-78
2021/05/28 11:43:26;;;;;;;3.30;2.05;;;22.70;99.90;;;;;;6294877;22;20172;-77
2021/05/28 11:45:55;;;;;;;4.65;2.25;;;22.50;99.90;;;;;;6294775;22;20607;-76
2021/05/28 11:48:23;;;;;;;4.45;1.88;;;22.30;99.90;;;;;;6293979;22;20500;-78
2021/05/28 11:50:51;;;;;;;3.67;2.20;;;22.10;99.90;;;;;;6291947;22;20604;-77
2021/05/28 11:53:18;;;;;;;3.15;1.92;;;21.80;99.90;;;;;;6293551;22;20168;-76
2021/05/28 11:55:47;;;;;;;2.60;1.98;;;21.50;99.90;;;;;;6293748;22;20472;-76
2021/05/28 11:58:14;;;;;;;3.00;2.40;;;21.10;99.90;;;;;;6293097;22;20163;-75
2021/05/28 12:00:42;;;;;;;3.38;2.13;;;21.30;99.90;;;;;;6294431;22;20172;-75
2021/05/28 12:03:09;;;;;;;2.60;2.28;;;21.30;99.90;;;;;;6293033;22;20176;-75
2021/05/28 12:05:38;;;;;;;4.35;2.30;;;21.50;99.90;;;;;;6292584;22;20172;-75
2021/05/28 12:08:24;;;;;;;5.78;3.10;;;21.70;99.90;;;;;;6294623;22;20196;-79
2021/05/28 12:10:52;;;;;;;4.32;2.97;;;21.70;99.90;;;;;;6293701;22;20168;-79
2021/05/28 12:13:20;;;;;;;4.65;3.25;;;21.60;99.90;;;;;;6293432;22;20176;-77
2021/05/28 12:15:48;;;;;;;4.35;2.45;;;21.60;99.90;;;;;;6292593;22;20233;-76
2021/05/28 12:18:23;;;;;;;4.07;2.60;;;21.50;99.90;;;;;;6293880;22;20176;-78
2021/05/28 12:20:51;;;;;;;3.22;2.13;;;21.60;99.90;;;;;;6293833;22;20203;-76
2021/05/28 12:23:20;;;;;;;4.45;2.42;;;21.80;99.90;;;;;;6293310;22;20175;-77
2021/05/28 12:25:51;;;;;;;3.42;2.20;;;22.10;99.90;;;;;;6292849;22;20175;-75
2021/05/28 12:28:24;;;;;;;3.72;2.47;;;21.90;99.90;;;;;;6293130;22;20195;-77
2021/05/28 12:30:54;;;;;;;4.10;2.28;;;21.80;99.90;;;;;;6292895;22;20209;-75
2021/05/28 12:33:24;;;;;;;5.57;2.10;;;21.70;99.90;;;;;;6293342;22;20233;-76
2021/05/28 12:35:56;;;;;;;5.75;2.30;;;21.40;99.90;;;;;;6292809;22;20210;-77
2021/05/28 12:38:23;;;;;;;3.28;2.08;;;21.20;99.90;;;;;;6293924;22;20406;-77
2021/05/28 12:40:52;;;;;;;4.47;2.25;;;20.90;99.90;;;;;;6292503;22;20172;-77
2021/05/28 12:43:22;;;;;;;3.95;2.75;;;20.60;99.90;;;;;;6293936;22;20947;-77
2021/05/28 12:45:48;;;;;;;3.75;2.60;;;20.60;99.90;;;;;;6291644;22;20544;-79
2021/05/28 12:48:15;;;;;;;3.92;2.60;;;20.80;99.90;;;;;;6292488;22;20248;-77
2021/05/28 12:50:44;;;;;;;4.75;2.28;;;20.80;99.90;;;;;;6292695;22;20568;-77
2021/05/28 12:53:13;;;;;;;2.70;1.95;;;20.80;99.90;;;;;;6291819;22;20225;-76